Tuesday, April 24, 2018, 4:27 AM EDT
Back to Local

KPOU, Poughkeepsie Dutchess Cty

Location: Wappingers Falls, NY, United States Lat: 41.633
Local Time: 4:27 AM EDT ( 8:27 GMT) Lon: -73.883
Time Zone: US/Eastern Elev: 167 ft

Show me the last for .
Show Decoded

2018-04-24 03:53 METAR KPOU 240753Z AUTO 00000KT 10SM CLR 03/M01 A3038 RMK AO2 SLP286 T00281006 =
2018-04-24 02:53 METAR KPOU 240653Z AUTO 00000KT 10SM CLR 03/M01 A3038 RMK AO2 SLP286 T00331006 =
2018-04-24 01:53 METAR KPOU 240553Z AUTO 00000KT 10SM CLR 04/M01 A3039 RMK AO2 SLP287 T00441011
                 10150 20044 58006 =
2018-04-24 00:53 METAR KPOU 240453Z AUTO 00000KT 10SM CLR 05/M01 A3040 RMK AO2 SLP290 T00501006
                 402001022 =
2018-04-23 23:53 METAR KPOU 240353Z AUTO 00000KT 10SM CLR 07/M01 A3041 RMK AO2 SLP294 T00721006 =
2018-04-23 22:53 METAR KPOU 240253Z AUTO 00000KT 10SM CLR 11/M02 A3040 RMK AO2 SLP293 T01111022
                 51014 =
2018-04-23 21:53 METAR KPOU 240153Z AUTO VRB04KT 10SM CLR 12/M03 A3040 RMK AO2 SLP292 T01221028 =
2018-04-23 20:53 METAR KPOU 240053Z AUTO 15004KT 10SM CLR 14/M04 A3039 RMK AO2 SLP288 T01391044 =
2018-04-23 19:53 METAR KPOU 232353Z 14008KT 10SM CLR 16/M04 A3036 RMK AO2 SLP279 T01561044 10200
                 20156 55001 =
2018-04-23 18:53 METAR KPOU 232253Z 15010KT 10SM CLR 18/M06 A3035 RMK AO2 SLP276 T01781061 =
2018-04-23 17:53 METAR KPOU 232153Z 16007G15KT 120V190 10SM CLR 19/M08 A3036 RMK AO2 SLP278
                 T01941078 =
2018-04-23 16:53 METAR KPOU 232053Z 22008KT 180V240 10SM CLR 19/M07 A3037 RMK AO2 SLP280
                 T01941067 56015 =
2018-04-23 15:53 METAR KPOU 231953Z 10SM CLR 19/M07 A3037 RMK AO2 SLP281 T01941067 =
2018-04-23 14:53 METAR KPOU 231853Z 35004KT 10SM CLR 19/M06 A3039 RMK AO2 SLP287 T01941061 =
2018-04-23 13:53 METAR KPOU 231753Z 00000KT 10SM CLR 19/M06 A3041 RMK AO2 SLP294 T01891056 10189
                 20033 58023 =
2018-04-23 12:53 METAR KPOU 231653Z VRB03KT 10SM CLR 17/M06 A3044 RMK AO2 SLP305 T01671056 =
2018-04-23 11:53 METAR KPOU 231553Z 26004KT 10SM CLR 16/M06 A3046 RMK AO2 SLP311 T01611061 =
2018-04-23 10:53 METAR KPOU 231453Z 25004KT 10SM CLR 14/M06 A3048 RMK AO2 SLP318 T01441056 56004
                 =
2018-04-23 09:53 METAR KPOU 231353Z 00000KT 10SM CLR 12/M05 A3048 RMK AO2 SLP319 T01221050 =
2018-04-23 08:53 METAR KPOU 231253Z 00000KT 10SM CLR 08/M04 A3048 RMK AO2 SLP317 T00831039 =
2018-04-23 07:53 METAR KPOU 231153Z 00000KT 10SM CLR 03/M02 A3049 RMK AO2 SLP323 T00331022 10033
                 21022 51016 =
2018-04-23 06:53 METAR KPOU 231053Z AUTO 00000KT 10SM CLR M01/M03 A3048 RMK AO2 SLP319 T10061033
                 =
2018-04-23 05:53 METAR KPOU 230953Z AUTO 03003KT 10SM CLR M02/M04 A3046 RMK AO2 SLP314 T10171044
                 =
2018-04-23 04:53 METAR KPOU 230853Z AUTO 00000KT 10SM CLR M01/M04 A3044 RMK AO2 SLP307 T10111044
                 52015 =

Support USWX by starting your Amazon purchase here.